Station Historical Data
Daily Summary for January 8, 2017 Units:  Both    English   Metric
« Previous Day
Next Day »
Daily Weekly Monthly Yearly Custom
  High: Low: Average:
Temperature: 17.6 °F /  -8 °C 11.1 °F /  -11.6 °C 13.7 °F /  -10.2 °C
Dew Point: 10.9 °F /  -11.7 °C 0.9 °F /  -17.3 °C 5.2 °F /  -14.9 °C
Humidity: 81% 56% 69%
Wind Speed: 17.0mph /  27.4km/h - 6.2mph /  10km/h
Wind Gust: 27.0mph /  43.5km/h - -
Wind- - West
Pressure: 30.66 in /  1038.1 hPa 30.25 in /  1024.3 hPa -
Precipitation: 0.00 in /  0 mm    
Historical Graphs
 
 
Tabular Data for January 8, 2017
Time Temperature Dew Point Pressure Wind Wind Speed Wind Gust Humidity Rainfall Rate (Hourly)
00:04 11.7 °F /  -11.3 °C 3.2 °F /  -16 °C 30.30in /  1026hPa West 6.0mph /  9.7km/h 14.0mph /  22.5km/h 68% 0.00in /  0mm
00:09 11.7 °F /  -11.3 °C 3.2 °F /  -16 °C 30.30in /  1026hPa West 7.0mph /  11.3km/h 13.0mph /  20.9km/h 68% 0.00in /  0mm
00:14 11.7 °F /  -11.3 °C 2.8 °F /  -16.2 °C 30.30in /  1026hPa West 6.0mph /  9.7km/h 13.0mph /  20.9km/h 67% 0.00in /  0mm
00:19 11.7 °F /  -11.3 °C 2.8 °F /  -16.2 °C 30.29in /  1025.6hPa West 6.0mph /  9.7km/h 12.0mph /  19.3km/h 67% 0.00in /  0mm
00:24 11.9 °F /  -11.2 °C 3.0 °F /  -16.1 °C 30.29in /  1025.6hPa WSW 13.0mph /  20.9km/h 13.0mph /  20.9km/h 67% 0.00in /  0mm
00:29 11.9 °F /  -11.2 °C 3.0 °F /  -16.1 °C 30.29in /  1025.6hPa West 6.0mph /  9.7km/h 15.0mph /  24.1km/h 67% 0.00in /  0mm
00:34 12.0 °F /  -11.1 °C 3.1 °F /  -16.1 °C 30.29in /  1025.6hPa West 7.0mph /  11.3km/h 16.0mph /  25.7km/h 67% 0.00in /  0mm
00:39 11.9 °F /  -11.2 °C 3.0 °F /  -16.1 °C 30.29in /  1025.6hPa West 7.0mph /  11.3km/h 16.0mph /  25.7km/h 67% 0.00in /  0mm
00:44 12.0 °F /  -11.1 °C 3.1 °F /  -16.1 °C 30.28in /  1025.3hPa West 7.0mph /  11.3km/h 14.0mph /  22.5km/h 67% 0.00in /  0mm
00:49 11.9 °F /  -11.2 °C 3.0 °F /  -16.1 °C 30.28in /  1025.3hPa West 7.0mph /  11.3km/h 14.0mph /  22.5km/h 67% 0.00in /  0mm
00:54 11.7 °F /  -11.3 °C 2.8 °F /  -16.2 °C 30.28in /  1025.3hPa West 7.0mph /  11.3km/h 14.0mph /  22.5km/h 67% 0.00in /  0mm
00:59 11.6 °F /  -11.3 °C 2.8 °F /  -16.2 °C 30.28in /  1025.3hPa WSW 2.0mph /  3.2km/h 12.0mph /  19.3km/h 67% 0.00in /  0mm
01:05 11.6 °F /  -11.3 °C 2.8 °F /  -16.2 °C 30.28in /  1025.3hPa West 6.0mph /  9.7km/h 13.0mph /  20.9km/h 67% 0.00in /  0mm
01:10 11.5 °F /  -11.4 °C 2.7 °F /  -16.3 °C 30.28in /  1025.3hPa West 7.0mph /  11.3km/h 13.0mph /  20.9km/h 67% 0.00in /  0mm
01:15 11.5 °F /  -11.4 °C 2.7 °F /  -16.3 °C 30.28in /  1025.3hPa West 5.0mph /  8km/h 14.0mph /  22.5km/h 67% 0.00in /  0mm
01:20 11.4 °F /  -11.4 °C 2.6 °F /  -16.3 °C 30.28in /  1025.3hPa West 6.0mph /  9.7km/h 15.0mph /  24.1km/h 67% 0.00in /  0mm
01:25 11.4 °F /  -11.4 °C 2.6 °F /  -16.3 °C 30.27in /  1024.9hPa West 6.0mph /  9.7km/h 15.0mph /  24.1km/h 67% 0.00in /  0mm
01:30 11.4 °F /  -11.4 °C 2.6 °F /  -16.3 °C 30.27in /  1024.9hPa West 5.0mph /  8km/h 14.0mph /  22.5km/h 67% 0.00in /  0mm
01:35 11.2 °F /  -11.6 °C 2.7 °F /  -16.3 °C 30.27in /  1024.9hPa WNW 5.0mph /  8km/h 10.0mph /  16.1km/h 68% 0.00in /  0mm
01:40 11.2 °F /  -11.6 °C 2.7 °F /  -16.3 °C 30.27in /  1024.9hPa WSW 2.0mph /  3.2km/h 9.0mph /  14.5km/h 68% 0.00in /  0mm
01:45 11.3 °F /  -11.5 °C 2.8 °F /  -16.2 °C 30.27in /  1024.9hPa West 4.0mph /  6.4km/h 14.0mph /  22.5km/h 68% 0.00in /  0mm
01:50 11.1 °F /  -11.6 °C 2.6 °F /  -16.3 °C 30.27in /  1024.9hPa West 8.0mph /  12.9km/h 8.0mph /  12.9km/h 68% 0.00in /  0mm
01:55 11.2 °F /  -11.6 °C 3.0 °F /  -16.1 °C 30.27in /  1024.9hPa West 6.0mph /  9.7km/h 14.0mph /  22.5km/h 69% 0.00in /  0mm
02:00 11.2 °F /  -11.6 °C 3.0 °F /  -16.1 °C 30.27in /  1024.9hPa West 6.0mph /  9.7km/h 14.0mph /  22.5km/h 69% 0.00in /  0mm
02:05 11.3 °F /  -11.5 °C 3.1 °F /  -16.1 °C 30.27in /  1024.9hPa West 6.0mph /  9.7km/h 12.0mph /  19.3km/h 69% 0.00in /  0mm
02:10 11.4 °F /  -11.4 °C 3.2 °F /  -16 °C 30.27in /  1024.9hPa West 7.0mph /  11.3km/h 12.0mph /  19.3km/h 69% 0.00in /  0mm
02:15 11.4 °F /  -11.4 °C 3.2 °F /  -16 °C 30.27in /  1024.9hPa West 7.0mph /  11.3km/h 20.0mph /  32.2km/h 69% 0.00in /  0mm
02:20 11.6 °F /  -11.3 °C 3.4 °F /  -15.9 °C 30.27in /  1024.9hPa West 6.0mph /  9.7km/h 12.0mph /  19.3km/h 69% 0.00in /  0mm
02:25 11.6 °F /  -11.3 °C 3.4 °F /  -15.9 °C 30.27in /  1024.9hPa West 7.0mph /  11.3km/h 13.0mph /  20.9km/h 69% 0.00in /  0mm
02:30 11.7 °F /  -11.3 °C 3.5 °F /  -15.8 °C 30.27in /  1024.9hPa West 6.0mph /  9.7km/h 13.0mph /  20.9km/h 69% 0.00in /  0mm
02:35 11.7 °F /  -11.3 °C 3.5 °F /  -15.8 °C 30.28in /  1025.3hPa West 8.0mph /  12.9km/h 11.0mph /  17.7km/h 69% 0.00in /  0mm
02:40 11.7 °F /  -11.3 °C 3.5 °F /  -15.8 °C 30.28in /  1025.3hPa West 6.0mph /  9.7km/h 14.0mph /  22.5km/h 69% 0.00in /  0mm
02:45 11.7 °F /  -11.3 °C 3.8 °F /  -15.7 °C 30.28in /  1025.3hPa WNW 12.0mph /  19.3km/h 16.0mph /  25.7km/h 70% 0.00in /  0mm
02:50 11.9 °F /  -11.2 °C 3.7 °F /  -15.7 °C 30.28in /  1025.3hPa West 10.0mph /  16.1km/h 17.0mph /  27.4km/h 69% 0.00in /  0mm
02:55 12.1 °F /  -11.1 °C 3.9 °F /  -15.6 °C 30.28in /  1025.3hPa West 9.0mph /  14.5km/h 20.0mph /  32.2km/h 69% 0.00in /  0mm
03:00 12.1 °F /  -11.1 °C 3.9 °F /  -15.6 °C 30.28in /  1025.3hPa West 5.0mph /  8km/h 13.0mph /  20.9km/h 69% 0.00in /  0mm
03:05 12.2 °F /  -11 °C 4.0 °F /  -15.6 °C 30.27in /  1024.9hPa West 7.0mph /  11.3km/h 16.0mph /  25.7km/h 69% 0.00in /  0mm
03:10 12.4 °F /  -10.9 °C 3.8 °F /  -15.7 °C 30.27in /  1024.9hPa West 7.0mph /  11.3km/h 18.0mph /  29km/h 68% 0.00in /  0mm
03:15 12.6 °F /  -10.8 °C 4.0 °F /  -15.6 °C 30.27in /  1024.9hPa WSW 8.0mph /  12.9km/h 18.0mph /  29km/h 68% 0.00in /  0mm
03:20 12.8 °F /  -10.7 °C 4.2 °F /  -15.4 °C 30.27in /  1024.9hPa West 8.0mph /  12.9km/h 15.0mph /  24.1km/h 68% 0.00in /  0mm
03:25 13.1 °F /  -10.5 °C 4.5 °F /  -15.3 °C 30.27in /  1024.9hPa West 8.0mph /  12.9km/h 17.0mph /  27.4km/h 68% 0.00in /  0mm
03:30 13.3 °F /  -10.4 °C 4.7 °F /  -15.2 °C 30.26in /  1024.6hPa West 8.0mph /  12.9km/h 18.0mph /  29km/h 68% 0.00in /  0mm
03:35 13.4 °F /  -10.3 °C 4.8 °F /  -15.1 °C 30.26in /  1024.6hPa West 8.0mph /  12.9km/h 18.0mph /  29km/h 68% 0.00in /  0mm
03:40 13.5 °F /  -10.3 °C 4.9 °F /  -15.1 °C 30.26in /  1024.6hPa WNW 11.0mph /  17.7km/h 14.0mph /  22.5km/h 68% 0.00in /  0mm
03:45 13.5 °F /  -10.3 °C 5.2 °F /  -14.9 °C 30.26in /  1024.6hPa WSW 6.0mph /  9.7km/h 22.0mph /  35.4km/h 69% 0.00in /  0mm
03:50 13.5 °F /  -10.3 °C 5.5 °F /  -14.7 °C 30.26in /  1024.6hPa WSW 8.0mph /  12.9km/h 16.0mph /  25.7km/h 70% 0.00in /  0mm
03:55 13.5 °F /  -10.3 °C 5.8 °F /  -14.6 °C 30.26in /  1024.6hPa WNW 14.0mph /  22.5km/h 17.0mph /  27.4km/h 71% 0.00in /  0mm
04:00 13.5 °F /  -10.3 °C 6.1 °F /  -14.4 °C 30.26in /  1024.6hPa NW 17.0mph /  27.4km/h 19.0mph /  30.6km/h 72% 0.00in /  0mm
04:05 13.5 °F /  -10.3 °C 6.5 °F /  -14.2 °C 30.25in /  1024.3hPa WNW 6.0mph /  9.7km/h 19.0mph /  30.6km/h 73% 0.00in /  0mm
04:10 13.6 °F /  -10.2 °C 6.5 °F /  -14.2 °C 30.25in /  1024.3hPa West 10.0mph /  16.1km/h 19.0mph /  30.6km/h 73% 0.00in /  0mm
04:15 13.6 °F /  -10.2 °C 6.5 °F /  -14.2 °C 30.26in /  1024.6hPa West 10.0mph /  16.1km/h 19.0mph /  30.6km/h 73% 0.00in /  0mm
04:20 13.5 °F /  -10.3 °C 6.5 °F /  -14.2 °C 30.25in /  1024.3hPa West 10.0mph /  16.1km/h 21.0mph /  33.8km/h 73% 0.00in /  0mm
04:25 13.4 °F /  -10.3 °C 6.4 °F /  -14.2 °C 30.25in /  1024.3hPa West 9.0mph /  14.5km/h 21.0mph /  33.8km/h 73% 0.00in /  0mm
04:30 13.3 °F /  -10.4 °C 6.6 °F /  -14.1 °C 30.26in /  1024.6hPa West 11.0mph /  17.7km/h 17.0mph /  27.4km/h 74% 0.00in /  0mm
04:35 13.2 °F /  -10.4 °C 6.5 °F /  -14.2 °C 30.26in /  1024.6hPa WSW 6.0mph /  9.7km/h 17.0mph /  27.4km/h 74% 0.00in /  0mm
04:40 13.0 °F /  -10.6 °C 6.3 °F /  -14.3 °C 30.26in /  1024.6hPa West 8.0mph /  12.9km/h 17.0mph /  27.4km/h 74% 0.00in /  0mm
04:45 12.9 °F /  -10.6 °C 6.2 °F /  -14.3 °C 30.26in /  1024.6hPa West 9.0mph /  14.5km/h 19.0mph /  30.6km/h 74% 0.00in /  0mm
04:50 12.8 °F /  -10.7 °C 6.4 °F /  -14.2 °C 30.26in /  1024.6hPa West 9.0mph /  14.5km/h 19.0mph /  30.6km/h 75% 0.00in /  0mm
04:54 12.7 °F /  -10.7 °C 6.3 °F /  -14.3 °C 30.26in /  1024.6hPa West 9.0mph /  14.5km/h 21.0mph /  33.8km/h 75% 0.00in /  0mm
04:59 12.7 °F /  -10.7 °C 6.6 °F /  -14.1 °C 30.27in /  1024.9hPa West 8.0mph /  12.9km/h 18.0mph /  29km/h 76% 0.00in /  0mm
05:05 12.7 °F /  -10.7 °C 6.6 °F /  -14.1 °C 30.27in /  1024.9hPa WSW 14.0mph /  22.5km/h 20.0mph /  32.2km/h 76% 0.00in /  0mm
05:09 12.6 °F /  -10.8 °C 6.5 °F /  -14.2 °C 30.27in /  1024.9hPa West 11.0mph /  17.7km/h 20.0mph /  32.2km/h 76% 0.00in /  0mm
05:15 12.7 °F /  -10.7 °C 6.6 °F /  -14.1 °C 30.27in /  1024.9hPa West 9.0mph /  14.5km/h 19.0mph /  30.6km/h 76% 0.00in /  0mm
05:25 12.7 °F /  -10.7 °C 6.9 °F /  -13.9 °C 30.27in /  1024.9hPa West 9.0mph /  14.5km/h 19.0mph /  30.6km/h 77% 0.00in /  0mm
05:30 12.8 °F /  -10.7 °C 6.9 °F /  -13.9 °C 30.28in /  1025.3hPa West 11.0mph /  17.7km/h 17.0mph /  27.4km/h 77% 0.00in /  0mm
05:35 12.8 °F /  -10.7 °C 6.7 °F /  -14.1 °C 30.27in /  1024.9hPa WSW 8.0mph /  12.9km/h 17.0mph /  27.4km/h 76% 0.00in /  0mm
05:40 12.7 °F /  -10.7 °C 6.6 °F /  -14.1 °C 30.28in /  1025.3hPa WSW 13.0mph /  20.9km/h 14.0mph /  22.5km/h 76% 0.00in /  0mm
05:45 12.7 °F /  -10.7 °C 6.6 °F /  -14.1 °C 30.28in /  1025.3hPa WNW 5.0mph /  8km/h 14.0mph /  22.5km/h 76% 0.00in /  0mm
05:50 12.8 °F /  -10.7 °C 6.7 °F /  -14.1 °C 30.28in /  1025.3hPa West 8.0mph /  12.9km/h 17.0mph /  27.4km/h 76% 0.00in /  0mm
05:55 13.0 °F /  -10.6 °C 6.9 °F /  -13.9 °C 30.28in /  1025.3hPa West 9.0mph /  14.5km/h 20.0mph /  32.2km/h 76% 0.00in /  0mm
05:59 12.9 °F /  -10.6 °C 6.8 °F /  -14 °C 30.29in /  1025.6hPa West 9.0mph /  14.5km/h 16.0mph /  25.7km/h 76% 0.00in /  0mm
06:04 12.9 °F /  -10.6 °C 7.0 °F /  -13.9 °C 30.29in /  1025.6hPa North 5.0mph /  8km/h 13.0mph /  20.9km/h 77% 0.00in /  0mm
06:09 13.0 °F /  -10.6 °C 7.4 °F /  -13.7 °C 30.30in /  1026hPa NW 8.0mph /  12.9km/h 14.0mph /  22.5km/h 78% 0.00in /  0mm
06:14 13.1 °F /  -10.5 °C 7.5 °F /  -13.6 °C 30.30in /  1026hPa WNW 7.0mph /  11.3km/h 18.0mph /  29km/h 78% 0.00in /  0mm
06:20 13.2 °F /  -10.4 °C 7.6 °F /  -13.6 °C 30.30in /  1026hPa WNW 7.0mph /  11.3km/h 18.0mph /  29km/h 78% 0.00in /  0mm
06:25 13.2 °F /  -10.4 °C 7.6 °F /  -13.6 °C 30.30in /  1026hPa WNW 5.0mph /  8km/h 17.0mph /  27.4km/h 78% 0.00in /  0mm
06:30 13.3 °F /  -10.4 °C 7.7 °F /  -13.5 °C 30.31in /  1026.3hPa West 8.0mph /  12.9km/h 14.0mph /  22.5km/h 78% 0.00in /  0mm
06:35 13.4 °F /  -10.3 °C 7.8 °F /  -13.4 °C 30.31in /  1026.3hPa WNW 13.0mph /  20.9km/h 15.0mph /  24.1km/h 78% 0.00in /  0mm
06:40 13.3 °F /  -10.4 °C 7.7 °F /  -13.5 °C 30.31in /  1026.3hPa WNW 7.0mph /  11.3km/h 15.0mph /  24.1km/h 78% 0.00in /  0mm
06:45 13.3 °F /  -10.4 °C 8.0 °F /  -13.3 °C 30.32in /  1026.6hPa WNW 8.0mph /  12.9km/h 13.0mph /  20.9km/h 79% 0.00in /  0mm
06:49 13.2 °F /  -10.4 °C 7.9 °F /  -13.4 °C 30.32in /  1026.6hPa West 6.0mph /  9.7km/h 13.0mph /  20.9km/h 79% 0.00in /  0mm
06:55 13.2 °F /  -10.4 °C 7.9 °F /  -13.4 °C 30.32in /  1026.6hPa West 6.0mph /  9.7km/h 12.0mph /  19.3km/h 79% 0.00in /  0mm
07:00 13.0 °F /  -10.6 °C 7.7 °F /  -13.5 °C 30.33in /  1027hPa West 6.0mph /  9.7km/h 12.0mph /  19.3km/h 79% 0.00in /  0mm
07:05 13.0 °F /  -10.6 °C 8.0 °F /  -13.3 °C 30.33in /  1027hPa West 4.0mph /  6.4km/h 10.0mph /  16.1km/h 80% 0.00in /  0mm
07:10 12.9 °F /  -10.6 °C 7.6 °F /  -13.6 °C 30.33in /  1027hPa WSW 4.0mph /  6.4km/h 11.0mph /  17.7km/h 79% 0.00in /  0mm
07:15 12.8 °F /  -10.7 °C 7.8 °F /  -13.4 °C 30.33in /  1027hPa West 4.0mph /  6.4km/h 11.0mph /  17.7km/h 80% 0.00in /  0mm
07:19 12.9 °F /  -10.6 °C 7.9 °F /  -13.4 °C 30.34in /  1027.3hPa West 3.0mph /  4.8km/h 10.0mph /  16.1km/h 80% 0.00in /  0mm
07:24 13.1 °F /  -10.5 °C 8.1 °F /  -13.3 °C 30.34in /  1027.3hPa WSW 3.0mph /  4.8km/h 11.0mph /  17.7km/h 80% 0.00in /  0mm
07:29 13.2 °F /  -10.4 °C 7.9 °F /  -13.4 °C 30.34in /  1027.3hPa West 4.0mph /  6.4km/h 9.0mph /  14.5km/h 79% 0.00in /  0mm
07:35 13.2 °F /  -10.4 °C 7.9 °F /  -13.4 °C 30.34in /  1027.3hPa West 2.0mph /  3.2km/h 9.0mph /  14.5km/h 79% 0.00in /  0mm
07:40 13.3 °F /  -10.4 °C 8.0 °F /  -13.3 °C 30.34in /  1027.3hPa WSW 6.0mph /  9.7km/h 9.0mph /  14.5km/h 79% 0.00in /  0mm
07:45 13.3 °F /  -10.4 °C 8.0 °F /  -13.3 °C 30.34in /  1027.3hPa WNW 5.0mph /  8km/h 8.0mph /  12.9km/h 79% 0.00in /  0mm
07:49 13.4 °F /  -10.3 °C 8.1 °F /  -13.3 °C 30.34in /  1027.3hPa WSW 5.0mph /  8km/h 9.0mph /  14.5km/h 79% 0.00in /  0mm
07:55 13.6 °F /  -10.2 °C 8.3 °F /  -13.2 °C 30.34in /  1027.3hPa WSW 5.0mph /  8km/h 13.0mph /  20.9km/h 79% 0.00in /  0mm
08:00 13.5 °F /  -10.3 °C 8.2 °F /  -13.2 °C 30.34in /  1027.3hPa WSW 5.0mph /  8km/h 9.0mph /  14.5km/h 79% 0.00in /  0mm
08:04 13.6 °F /  -10.2 °C 8.0 °F /  -13.3 °C 30.35in /  1027.7hPa West 4.0mph /  6.4km/h 9.0mph /  14.5km/h 78% 0.00in /  0mm
08:10 13.7 °F /  -10.2 °C 7.5 °F /  -13.6 °C 30.35in /  1027.7hPa West 5.0mph /  8km/h 11.0mph /  17.7km/h 76% 0.00in /  0mm
08:15 14.0 °F /  -10 °C 7.5 °F /  -13.6 °C 30.35in /  1027.7hPa SW 3.0mph /  4.8km/h 12.0mph /  19.3km/h 75% 0.00in /  0mm
09:40 16.5 °F /  -8.6 °C 7.1 °F /  -13.8 °C 30.39in /  1029hPa West 10.0mph /  16.1km/h 20.0mph /  32.2km/h 66% 0.00in /  0mm
09:45 16.4 °F /  -8.7 °C 7.0 °F /  -13.9 °C 30.39in /  1029hPa WNW 8.0mph /  12.9km/h 19.0mph /  30.6km/h 66% 0.00in /  0mm
09:50 16.2 °F /  -8.8 °C 7.2 °F /  -13.8 °C 30.40in /  1029.3hPa West 5.0mph /  8km/h 20.0mph /  32.2km/h 67% 0.00in /  0mm
09:54 15.9 °F /  -8.9 °C 8.2 °F /  -13.2 °C 30.40in /  1029.3hPa WNW 11.0mph /  17.7km/h 15.0mph /  24.1km/h 71% 0.00in /  0mm
09:59 15.7 °F /  -9.1 °C 8.0 °F /  -13.3 °C 30.40in /  1029.3hPa WNW 9.0mph /  14.5km/h 17.0mph /  27.4km/h 71% 0.00in /  0mm
10:04 15.6 °F /  -9.1 °C 7.2 °F /  -13.8 °C 30.41in /  1029.7hPa NW 10.0mph /  16.1km/h 16.0mph /  25.7km/h 69% 0.00in /  0mm
10:09 15.8 °F /  -9 °C 6.4 °F /  -14.2 °C 30.41in /  1029.7hPa WNW 9.0mph /  14.5km/h 19.0mph /  30.6km/h 66% 0.00in /  0mm
10:14 15.7 °F /  -9.1 °C 5.3 °F /  -14.8 °C 30.41in /  1029.7hPa West 8.0mph /  12.9km/h 27.0mph /  43.5km/h 63% 0.00in /  0mm
10:19 15.5 °F /  -9.2 °C 5.5 °F /  -14.7 °C 30.41in /  1029.7hPa NNW 4.0mph /  6.4km/h 15.0mph /  24.1km/h 64% 0.00in /  0mm
10:24 15.9 °F /  -8.9 °C 7.2 °F /  -13.8 °C 30.41in /  1029.7hPa WNW 8.0mph /  12.9km/h 15.0mph /  24.1km/h 68% 0.00in /  0mm
10:30 16.4 °F /  -8.7 °C 7.0 °F /  -13.9 °C 30.41in /  1029.7hPa WNW 9.0mph /  14.5km/h 14.0mph /  22.5km/h 66% 0.00in /  0mm
10:34 16.8 °F /  -8.4 °C 6.0 °F /  -14.4 °C 30.41in /  1029.7hPa WNW 8.0mph /  12.9km/h 15.0mph /  24.1km/h 62% 0.00in /  0mm
10:45 16.9 °F /  -8.4 °C 5.0 °F /  -15 °C 30.42in /  1030hPa WNW 10.0mph /  16.1km/h 21.0mph /  33.8km/h 59% 0.00in /  0mm
10:50 16.6 °F /  -8.6 °C 5.1 °F /  -14.9 °C 30.42in /  1030hPa WSW 7.0mph /  11.3km/h 16.0mph /  25.7km/h 60% 0.00in /  0mm
10:55 17.0 °F /  -8.3 °C 6.2 °F /  -14.3 °C 30.42in /  1030hPa North 4.0mph /  6.4km/h 18.0mph /  29km/h 62% 0.00in /  0mm
10:59 17.1 °F /  -8.3 °C 5.2 °F /  -14.9 °C 30.42in /  1030hPa WNW 10.0mph /  16.1km/h 23.0mph /  37km/h 59% 0.00in /  0mm
11:05 16.7 °F /  -8.5 °C 4.8 °F /  -15.1 °C 30.42in /  1030hPa West 10.0mph /  16.1km/h 23.0mph /  37km/h 59% 0.00in /  0mm
11:09 16.5 °F /  -8.6 °C 5.4 °F /  -14.8 °C 30.43in /  1030.4hPa West 13.0mph /  20.9km/h 19.0mph /  30.6km/h 61% 0.00in /  0mm
11:14 16.6 °F /  -8.6 °C 5.8 °F /  -14.6 °C 30.43in /  1030.4hPa NW 4.0mph /  6.4km/h 15.0mph /  24.1km/h 62% 0.00in /  0mm
11:19 16.4 °F /  -8.7 °C 6.0 °F /  -14.4 °C 30.43in /  1030.4hPa West 3.0mph /  4.8km/h 17.0mph /  27.4km/h 63% 0.00in /  0mm
11:24 16.4 °F /  -8.7 °C 7.0 °F /  -13.9 °C 30.43in /  1030.4hPa NNW 5.0mph /  8km/h 12.0mph /  19.3km/h 66% 0.00in /  0mm
11:29 15.9 °F /  -8.9 °C 8.5 °F /  -13.1 °C 30.43in /  1030.4hPa NW 8.0mph /  12.9km/h 16.0mph /  25.7km/h 72% 0.00in /  0mm
11:34 15.8 °F /  -9 °C 8.7 °F /  -12.9 °C 30.43in /  1030.4hPa WNW 8.0mph /  12.9km/h 13.0mph /  20.9km/h 73% 0.00in /  0mm
11:39 16.0 °F /  -8.9 °C 8.6 °F /  -13 °C 30.43in /  1030.4hPa WNW 6.0mph /  9.7km/h 13.0mph /  20.9km/h 72% 0.00in /  0mm
11:44 16.3 °F /  -8.7 °C 6.9 °F /  -13.9 °C 30.43in /  1030.4hPa WNW 6.0mph /  9.7km/h 14.0mph /  22.5km/h 66% 0.00in /  0mm
11:50 17.5 °F /  -8.1 °C 8.1 °F /  -13.3 °C 30.44in /  1030.7hPa WNW 6.0mph /  9.7km/h 18.0mph /  29km/h 66% 0.00in /  0mm
11:54 17.2 °F /  -8.2 °C 7.8 °F /  -13.4 °C 30.44in /  1030.7hPa NW 6.0mph /  9.7km/h 18.0mph /  29km/h 66% 0.00in /  0mm
12:00 16.5 °F /  -8.6 °C 7.1 °F /  -13.8 °C 30.44in /  1030.7hPa WNW 6.0mph /  9.7km/h 13.0mph /  20.9km/h 66% 0.00in /  0mm
12:05 16.3 °F /  -8.7 °C 6.9 °F /  -13.9 °C 30.44in /  1030.7hPa WNW 10.0mph /  16.1km/h 16.0mph /  25.7km/h 66% 0.00in /  0mm
12:14 16.4 °F /  -8.7 °C 6.7 °F /  -14.1 °C 30.45in /  1031hPa NNE 2.0mph /  3.2km/h 14.0mph /  22.5km/h 65% 0.00in /  0mm
12:24 16.5 °F /  -8.6 °C 8.1 °F /  -13.3 °C 30.45in /  1031hPa WNW 4.0mph /  6.4km/h 13.0mph /  20.9km/h 69% 0.00in /  0mm
12:29 16.2 °F /  -8.8 °C 8.4 °F /  -13.1 °C 30.45in /  1031hPa WNW 15.0mph /  24.1km/h 15.0mph /  24.1km/h 71% 0.00in /  0mm
12:34 15.9 °F /  -8.9 °C 9.1 °F /  -12.7 °C 30.46in /  1031.4hPa NW 5.0mph /  8km/h 15.0mph /  24.1km/h 74% 0.00in /  0mm
12:39 15.3 °F /  -9.3 °C 9.1 °F /  -12.7 °C 30.46in /  1031.4hPa NW 6.0mph /  9.7km/h 15.0mph /  24.1km/h 76% 0.00in /  0mm
12:44 16.2 °F /  -8.8 °C 10.0 °F /  -12.2 °C 30.46in /  1031.4hPa NW 5.0mph /  8km/h 10.0mph /  16.1km/h 76% 0.00in /  0mm
12:49 17.6 °F /  -8 °C 10.1 °F /  -12.2 °C 30.47in /  1031.7hPa WNW 5.0mph /  8km/h 16.0mph /  25.7km/h 72% 0.00in /  0mm
12:54 16.8 °F /  -8.4 °C 9.6 °F /  -12.4 °C 30.47in /  1031.7hPa WNW 6.0mph /  9.7km/h 16.0mph /  25.7km/h 73% 0.00in /  0mm
12:59 16.3 °F /  -8.7 °C 9.2 °F /  -12.7 °C 30.47in /  1031.7hPa NW 5.0mph /  8km/h 13.0mph /  20.9km/h 73% 0.00in /  0mm
13:05 16.4 °F /  -8.7 °C 9.6 °F /  -12.4 °C 30.47in /  1031.7hPa NW 10.0mph /  16.1km/h 13.0mph /  20.9km/h 74% 0.00in /  0mm
13:10 15.8 °F /  -9 °C 9.3 °F /  -12.6 °C 30.47in /  1031.7hPa WNW 4.0mph /  6.4km/h 15.0mph /  24.1km/h 75% 0.00in /  0mm
13:14 15.5 °F /  -9.2 °C 8.7 °F /  -12.9 °C 30.47in /  1031.7hPa WNW 6.0mph /  9.7km/h 15.0mph /  24.1km/h 74% 0.00in /  0mm
13:19 15.4 °F /  -9.2 °C 9.2 °F /  -12.7 °C 30.48in /  1032.1hPa NW 3.0mph /  4.8km/h 12.0mph /  19.3km/h 76% 0.00in /  0mm
13:24 15.3 °F /  -9.3 °C 9.1 °F /  -12.7 °C 30.48in /  1032.1hPa WNW 7.0mph /  11.3km/h 14.0mph /  22.5km/h 76% 0.00in /  0mm
13:29 15.0 °F /  -9.4 °C 9.7 °F /  -12.4 °C 30.48in /  1032.1hPa NW 2.0mph /  3.2km/h 11.0mph /  17.7km/h 79% 0.00in /  0mm
13:34 15.5 °F /  -9.2 °C 10.1 °F /  -12.2 °C 30.48in /  1032.1hPa WSW 5.0mph /  8km/h 10.0mph /  16.1km/h 79% 0.00in /  0mm
13:39 16.6 °F /  -8.6 °C 10.9 °F /  -11.7 °C 30.48in /  1032.1hPa NW 4.0mph /  6.4km/h 10.0mph /  16.1km/h 78% 0.00in /  0mm
13:44 16.6 °F /  -8.6 °C 10.9 °F /  -11.7 °C 30.48in /  1032.1hPa NW 4.0mph /  6.4km/h 10.0mph /  16.1km/h 78% 0.00in /  0mm
13:49 16.1 °F /  -8.8 °C 9.9 °F /  -12.3 °C 30.49in /  1032.4hPa NNW 5.0mph /  8km/h 14.0mph /  22.5km/h 76% 0.00in /  0mm
13:54 15.1 °F /  -9.4 °C 9.8 °F /  -12.3 °C 30.49in /  1032.4hPa NW 6.0mph /  9.7km/h 14.0mph /  22.5km/h 79% 0.00in /  0mm
13:59 14.8 °F /  -9.6 °C 10.0 °F /  -12.2 °C 30.49in /  1032.4hPa WNW 6.0mph /  9.7km/h 14.0mph /  22.5km/h 81% 0.00in /  0mm
14:04 15.0 °F /  -9.4 °C 9.9 °F /  -12.3 °C 30.49in /  1032.4hPa NW 5.0mph /  8km/h 10.0mph /  16.1km/h 80% 0.00in /  0mm
14:14 15.3 °F /  -9.3 °C 9.7 °F /  -12.4 °C 30.50in /  1032.7hPa West 8.0mph /  12.9km/h 11.0mph /  17.7km/h 78% 0.00in /  0mm
14:19 15.0 °F /  -9.4 °C 9.4 °F /  -12.6 °C 30.50in /  1032.7hPa WNW 6.0mph /  9.7km/h 14.0mph /  22.5km/h 78% 0.00in /  0mm
14:24 15.2 °F /  -9.3 °C 9.0 °F /  -12.8 °C 30.50in /  1032.7hPa WNW 6.0mph /  9.7km/h 17.0mph /  27.4km/h 76% 0.00in /  0mm
14:29 15.2 °F /  -9.3 °C 7.8 °F /  -13.4 °C 30.50in /  1032.7hPa West 6.0mph /  9.7km/h 16.0mph /  25.7km/h 72% 0.00in /  0mm
14:34 15.2 °F /  -9.3 °C 6.8 °F /  -14 °C 30.50in /  1032.7hPa West 7.0mph /  11.3km/h 12.0mph /  19.3km/h 69% 0.00in /  0mm
14:39 15.7 °F /  -9.1 °C 6.3 °F /  -14.3 °C 30.51in /  1033.1hPa NNW 5.0mph /  8km/h 11.0mph /  17.7km/h 66% 0.00in /  0mm
14:44 15.6 °F /  -9.1 °C 5.6 °F /  -14.7 °C 30.51in /  1033.1hPa NW 8.0mph /  12.9km/h 17.0mph /  27.4km/h 64% 0.00in /  0mm
14:49 15.9 °F /  -8.9 °C 5.5 °F /  -14.7 °C 30.51in /  1033.1hPa NW 6.0mph /  9.7km/h 17.0mph /  27.4km/h 63% 0.00in /  0mm
14:54 16.2 °F /  -8.8 °C 5.5 °F /  -14.7 °C 30.51in /  1033.1hPa NW 6.0mph /  9.7km/h 15.0mph /  24.1km/h 62% 0.00in /  0mm
14:59 16.6 °F /  -8.6 °C 5.5 °F /  -14.7 °C 30.52in /  1033.4hPa NW 7.0mph /  11.3km/h 16.0mph /  25.7km/h 61% 0.00in /  0mm
15:04 16.8 °F /  -8.4 °C 6.0 °F /  -14.4 °C 30.52in /  1033.4hPa WNW 7.0mph /  11.3km/h 16.0mph /  25.7km/h 62% 0.00in /  0mm
15:09 16.7 °F /  -8.5 °C 5.6 °F /  -14.7 °C 30.52in /  1033.4hPa NNW 7.0mph /  11.3km/h 15.0mph /  24.1km/h 61% 0.00in /  0mm
15:14 16.2 °F /  -8.8 °C 5.1 °F /  -14.9 °C 30.52in /  1033.4hPa NW 5.0mph /  8km/h 16.0mph /  25.7km/h 61% 0.00in /  0mm
15:19 16.4 °F /  -8.7 °C 4.2 °F /  -15.4 °C 30.53in /  1033.7hPa NW 9.0mph /  14.5km/h 15.0mph /  24.1km/h 58% 0.00in /  0mm
15:24 16.3 °F /  -8.7 °C 4.5 °F /  -15.3 °C 30.53in /  1033.7hPa WNW 7.0mph /  11.3km/h 15.0mph /  24.1km/h 59% 0.00in /  0mm
15:29 15.7 °F /  -9.1 °C 4.3 °F /  -15.4 °C 30.53in /  1033.7hPa NW 7.0mph /  11.3km/h 14.0mph /  22.5km/h 60% 0.00in /  0mm
15:34 15.5 °F /  -9.2 °C 3.7 °F /  -15.7 °C 30.53in /  1033.7hPa WNW 6.0mph /  9.7km/h 12.0mph /  19.3km/h 59% 0.00in /  0mm
15:39 15.6 °F /  -9.1 °C 3.4 °F /  -15.9 °C 30.54in /  1034.1hPa WNW 6.0mph /  9.7km/h 12.0mph /  19.3km/h 58% 0.00in /  0mm
15:44 15.4 °F /  -9.2 °C 3.2 °F /  -16 °C 30.54in /  1034.1hPa WSW 5.0mph /  8km/h 16.0mph /  25.7km/h 58% 0.00in /  0mm
15:49 15.3 °F /  -9.3 °C 2.4 °F /  -16.4 °C 30.54in /  1034.1hPa WNW 10.0mph /  16.1km/h 18.0mph /  29km/h 56% 0.00in /  0mm
15:54 15.0 °F /  -9.4 °C 2.1 °F /  -16.6 °C 30.54in /  1034.1hPa WNW 13.0mph /  20.9km/h 19.0mph /  30.6km/h 56% 0.00in /  0mm
15:59 14.7 °F /  -9.6 °C 2.2 °F /  -16.6 °C 30.54in /  1034.1hPa WNW 8.0mph /  12.9km/h 19.0mph /  30.6km/h 57% 0.00in /  0mm
16:04 14.7 °F /  -9.6 °C 2.6 °F /  -16.3 °C 30.55in /  1034.4hPa WNW 6.0mph /  9.7km/h 11.0mph /  17.7km/h 58% 0.00in /  0mm
16:09 14.8 °F /  -9.6 °C 2.7 °F /  -16.3 °C 30.55in /  1034.4hPa WSW 11.0mph /  17.7km/h 14.0mph /  22.5km/h 58% 0.00in /  0mm
16:14 14.8 °F /  -9.6 °C 2.3 °F /  -16.5 °C 30.55in /  1034.4hPa West 8.0mph /  12.9km/h 16.0mph /  25.7km/h 57% 0.00in /  0mm
16:24 14.4 °F /  -9.8 °C 1.9 °F /  -16.7 °C 30.55in /  1034.4hPa WNW 8.0mph /  12.9km/h 16.0mph /  25.7km/h 57% 0.00in /  0mm
16:29 14.2 °F /  -9.9 °C 2.1 °F /  -16.6 °C 30.56in /  1034.8hPa WNW 8.0mph /  12.9km/h 16.0mph /  25.7km/h 58% 0.00in /  0mm
16:34 14.0 °F /  -10 °C 2.3 °F /  -16.5 °C 30.56in /  1034.8hPa WNW 9.0mph /  14.5km/h 16.0mph /  25.7km/h 59% 0.00in /  0mm
16:39 14.0 °F /  -10 °C 2.7 °F /  -16.3 °C 30.56in /  1034.8hPa WNW 8.0mph /  12.9km/h 16.0mph /  25.7km/h 60% 0.00in /  0mm
16:44 13.9 °F /  -10.1 °C 3.3 °F /  -15.9 °C 30.56in /  1034.8hPa WNW 7.0mph /  11.3km/h 15.0mph /  24.1km/h 62% 0.00in /  0mm
16:49 14.0 °F /  -10 °C 2.3 °F /  -16.5 °C 30.56in /  1034.8hPa WNW 6.0mph /  9.7km/h 10.0mph /  16.1km/h 59% 0.00in /  0mm
16:54 14.0 °F /  -10 °C 1.9 °F /  -16.7 °C 30.57in /  1035.1hPa West 5.0mph /  8km/h 13.0mph /  20.9km/h 58% 0.00in /  0mm
16:59 14.0 °F /  -10 °C 1.9 °F /  -16.7 °C 30.57in /  1035.1hPa WNW 9.0mph /  14.5km/h 13.0mph /  20.9km/h 58% 0.00in /  0mm
17:04 13.8 °F /  -10.1 °C 2.1 °F /  -16.6 °C 30.57in /  1035.1hPa WNW 6.0mph /  9.7km/h 13.0mph /  20.9km/h 59% 0.00in /  0mm
17:09 13.7 °F /  -10.2 °C 2.0 °F /  -16.7 °C 30.58in /  1035.4hPa WNW 6.0mph /  9.7km/h 11.0mph /  17.7km/h 59% 0.00in /  0mm
17:14 13.5 °F /  -10.3 °C 2.5 °F /  -16.4 °C 30.57in /  1035.1hPa WNW 8.0mph /  12.9km/h 11.0mph /  17.7km/h 61% 0.00in /  0mm
17:19 13.4 °F /  -10.3 °C 2.4 °F /  -16.4 °C 30.58in /  1035.4hPa West 4.0mph /  6.4km/h 10.0mph /  16.1km/h 61% 0.00in /  0mm
17:24 13.4 °F /  -10.3 °C 2.1 °F /  -16.6 °C 30.58in /  1035.4hPa West 13.0mph /  20.9km/h 14.0mph /  22.5km/h 60% 0.00in /  0mm
17:29 13.5 °F /  -10.3 °C 1.8 °F /  -16.8 °C 30.58in /  1035.4hPa WNW 4.0mph /  6.4km/h 13.0mph /  20.9km/h 59% 0.00in /  0mm
17:34 13.4 °F /  -10.3 °C 2.1 °F /  -16.6 °C 30.58in /  1035.4hPa West 4.0mph /  6.4km/h 9.0mph /  14.5km/h 60% 0.00in /  0mm
17:39 13.3 °F /  -10.4 °C 1.3 °F /  -17.1 °C 30.58in /  1035.4hPa WNW 6.0mph /  9.7km/h 15.0mph /  24.1km/h 58% 0.00in /  0mm
17:44 13.3 °F /  -10.4 °C 1.3 °F /  -17.1 °C 30.59in /  1035.8hPa West 5.0mph /  8km/h 11.0mph /  17.7km/h 58% 0.00in /  0mm
17:49 13.2 °F /  -10.4 °C 1.2 °F /  -17.1 °C 30.59in /  1035.8hPa WNW 5.0mph /  8km/h 11.0mph /  17.7km/h 58% 0.00in /  0mm
17:54 13.1 °F /  -10.5 °C 1.1 °F /  -17.2 °C 30.59in /  1035.8hPa WNW 2.0mph /  3.2km/h 10.0mph /  16.1km/h 58% 0.00in /  0mm
17:59 12.9 °F /  -10.6 °C 1.2 °F /  -17.1 °C 30.60in /  1036.1hPa WSW 3.0mph /  4.8km/h 6.0mph /  9.7km/h 59% 0.00in /  0mm
18:04 12.7 °F /  -10.7 °C 1.4 °F /  -17 °C 30.60in /  1036.1hPa WSW 10.0mph /  16.1km/h 14.0mph /  22.5km/h 60% 0.00in /  0mm
18:09 12.8 °F /  -10.7 °C 1.5 °F /  -16.9 °C 30.60in /  1036.1hPa West 4.0mph /  6.4km/h 11.0mph /  17.7km/h 60% 0.00in /  0mm
18:14 12.7 °F /  -10.7 °C 1.4 °F /  -17 °C 30.60in /  1036.1hPa WNW 5.0mph /  8km/h 11.0mph /  17.7km/h 60% 0.00in /  0mm
18:19 12.5 °F /  -10.8 °C 1.6 °F /  -16.9 °C 30.60in /  1036.1hPa WNW 4.0mph /  6.4km/h 9.0mph /  14.5km/h 61% 0.00in /  0mm
18:24 12.5 °F /  -10.8 °C 0.9 °F /  -17.3 °C 30.60in /  1036.1hPa West 4.0mph /  6.4km/h 7.0mph /  11.3km/h 59% 0.00in /  0mm
18:29 12.5 °F /  -10.8 °C 0.9 °F /  -17.3 °C 30.61in /  1036.5hPa West 3.0mph /  4.8km/h 8.0mph /  12.9km/h 59% 0.00in /  0mm
18:34 12.5 °F /  -10.8 °C 1.2 °F /  -17.1 °C 30.61in /  1036.5hPa SW 4.0mph /  6.4km/h 9.0mph /  14.5km/h 60% 0.00in /  0mm
18:39 12.5 °F /  -10.8 °C 1.2 °F /  -17.1 °C 30.61in /  1036.5hPa WSW 7.0mph /  11.3km/h 12.0mph /  19.3km/h 60% 0.00in /  0mm
18:44 12.4 °F /  -10.9 °C 1.1 °F /  -17.2 °C 30.62in /  1036.8hPa West 6.0mph /  9.7km/h 11.0mph /  17.7km/h 60% 0.00in /  0mm
18:49 12.2 °F /  -11 °C 1.3 °F /  -17.1 °C 30.62in /  1036.8hPa West 3.0mph /  4.8km/h 10.0mph /  16.1km/h 61% 0.00in /  0mm
18:54 12.1 °F /  -11.1 °C 1.6 °F /  -16.9 °C 30.62in /  1036.8hPa West 5.0mph /  8km/h 8.0mph /  12.9km/h 62% 0.00in /  0mm
18:59 12.2 °F /  -11 °C 1.7 °F /  -16.8 °C 30.62in /  1036.8hPa NNW 5.0mph /  8km/h 10.0mph /  16.1km/h 62% 0.00in /  0mm
19:04 12.2 °F /  -11 °C 1.7 °F /  -16.8 °C 30.62in /  1036.8hPa SW 4.0mph /  6.4km/h 11.0mph /  17.7km/h 62% 0.00in /  0mm
19:09 12.0 °F /  -11.1 °C 1.8 °F /  -16.8 °C 30.62in /  1036.8hPa West 5.0mph /  8km/h 11.0mph /  17.7km/h 63% 0.00in /  0mm
19:14 12.1 °F /  -11.1 °C 1.9 °F /  -16.7 °C 30.63in /  1037.1hPa West 2.0mph /  3.2km/h 12.0mph /  19.3km/h 63% 0.00in /  0mm
19:19 12.2 °F /  -11 °C 2.3 °F /  -16.5 °C 30.63in /  1037.1hPa West 4.0mph /  6.4km/h 12.0mph /  19.3km/h 64% 0.00in /  0mm
19:24 12.3 °F /  -10.9 °C 2.1 °F /  -16.6 °C 30.64in /  1037.5hPa West 5.0mph /  8km/h 12.0mph /  19.3km/h 63% 0.00in /  0mm
19:29 12.4 °F /  -10.9 °C 2.5 °F /  -16.4 °C 30.64in /  1037.5hPa West 5.0mph /  8km/h 12.0mph /  19.3km/h 64% 0.00in /  0mm
19:34 12.4 °F /  -10.9 °C 2.5 °F /  -16.4 °C 30.64in /  1037.5hPa West 5.0mph /  8km/h 10.0mph /  16.1km/h 64% 0.00in /  0mm
19:39 12.4 °F /  -10.9 °C 2.5 °F /  -16.4 °C 30.64in /  1037.5hPa West 7.0mph /  11.3km/h 10.0mph /  16.1km/h 64% 0.00in /  0mm
19:44 12.4 °F /  -10.9 °C 2.5 °F /  -16.4 °C 30.64in /  1037.5hPa WSW 5.0mph /  8km/h 11.0mph /  17.7km/h 64% 0.00in /  0mm
19:49 12.4 °F /  -10.9 °C 2.9 °F /  -16.2 °C 30.64in /  1037.5hPa WNW 5.0mph /  8km/h 10.0mph /  16.1km/h 65% 0.00in /  0mm
19:54 12.4 °F /  -10.9 °C 2.5 °F /  -16.4 °C 30.64in /  1037.5hPa West 5.0mph /  8km/h 10.0mph /  16.1km/h 64% 0.00in /  0mm
19:59 12.5 °F /  -10.8 °C 3.0 °F /  -16.1 °C 30.64in /  1037.5hPa WSW 10.0mph /  16.1km/h 12.0mph /  19.3km/h 65% 0.00in /  0mm
20:04 12.5 °F /  -10.8 °C 3.0 °F /  -16.1 °C 30.65in /  1037.8hPa WSW 1.0mph /  1.6km/h 10.0mph /  16.1km/h 65% 0.00in /  0mm
20:09 12.6 °F /  -10.8 °C 3.4 °F /  -15.9 °C 30.65in /  1037.8hPa WSW 5.0mph /  8km/h 9.0mph /  14.5km/h 66% 0.00in /  0mm
20:14 12.6 °F /  -10.8 °C 3.1 °F /  -16.1 °C 30.65in /  1037.8hPa WSW 3.0mph /  4.8km/h 9.0mph /  14.5km/h 65% 0.00in /  0mm
20:19 12.6 °F /  -10.8 °C 3.1 °F /  -16.1 °C 30.65in /  1037.8hPa West 5.0mph /  8km/h 10.0mph /  16.1km/h 65% 0.00in /  0mm
20:24 12.7 °F /  -10.7 °C 3.1 °F /  -16.1 °C 30.65in /  1037.8hPa West 4.0mph /  6.4km/h 11.0mph /  17.7km/h 65% 0.00in /  0mm
20:29 12.8 °F /  -10.7 °C 3.2 °F /  -16 °C 30.65in /  1037.8hPa West 5.0mph /  8km/h 11.0mph /  17.7km/h 65% 0.00in /  0mm
20:34 12.7 °F /  -10.7 °C 3.5 °F /  -15.8 °C 30.65in /  1037.8hPa West 4.0mph /  6.4km/h 8.0mph /  12.9km/h 66% 0.00in /  0mm
20:39 12.7 °F /  -10.7 °C 3.5 °F /  -15.8 °C 30.65in /  1037.8hPa West 5.0mph /  8km/h 14.0mph /  22.5km/h 66% 0.00in /  0mm
20:44 12.6 °F /  -10.8 °C 3.1 °F /  -16.1 °C 30.65in /  1037.8hPa West 5.0mph /  8km/h 14.0mph /  22.5km/h 65% 0.00in /  0mm
20:49 12.5 °F /  -10.8 °C 3.0 °F /  -16.1 °C 30.65in /  1037.8hPa West 5.0mph /  8km/h 14.0mph /  22.5km/h 65% 0.00in /  0mm
20:59 12.0 °F /  -11.1 °C 2.8 °F /  -16.2 °C 30.66in /  1038.1hPa West 4.0mph /  6.4km/h 8.0mph /  12.9km/h 66% 0.00in /  0mm
21:04 11.9 °F /  -11.2 °C 3.0 °F /  -16.1 °C 30.66in /  1038.1hPa West 4.0mph /  6.4km/h 8.0mph /  12.9km/h 67% 0.00in /  0mm
21:09 11.8 °F /  -11.2 °C 2.9 °F /  -16.2 °C 30.66in /  1038.1hPa WSW 4.0mph /  6.4km/h 8.0mph /  12.9km/h 67% 0.00in /  0mm
21:14 11.6 °F /  -11.3 °C 3.1 °F /  -16.1 °C 30.66in /  1038.1hPa WSW 4.0mph /  6.4km/h 10.0mph /  16.1km/h 68% 0.00in /  0mm
21:19 11.6 °F /  -11.3 °C 3.1 °F /  -16.1 °C 30.66in /  1038.1hPa WSW 2.0mph /  3.2km/h 7.0mph /  11.3km/h 68% 0.00in /  0mm
21:29 11.7 °F /  -11.3 °C 3.5 °F /  -15.8 °C 30.66in /  1038.1hPa WSW 3.0mph /  4.8km/h 8.0mph /  12.9km/h 69% 0.00in /  0mm
21:34 11.7 °F /  -11.3 °C 3.8 °F /  -15.7 °C 30.66in /  1038.1hPa WSW 5.0mph /  8km/h 8.0mph /  12.9km/h 70% 0.00in /  0mm
21:39 12.0 °F /  -11.1 °C 3.8 °F /  -15.7 °C 30.66in /  1038.1hPa West 4.0mph /  6.4km/h 11.0mph /  17.7km/h 69% 0.00in /  0mm
21:49 12.4 °F /  -10.9 °C 4.2 °F /  -15.4 °C 30.66in /  1038.1hPa West 4.0mph /  6.4km/h 9.0mph /  14.5km/h 69% 0.00in /  0mm
21:59 12.6 °F /  -10.8 °C 4.3 °F /  -15.4 °C 30.66in /  1038.1hPa West 3.0mph /  4.8km/h 9.0mph /  14.5km/h 69% 0.00in /  0mm
22:04 12.7 °F /  -10.7 °C 4.8 °F /  -15.1 °C 30.65in /  1037.8hPa SW 2.0mph /  3.2km/h 7.0mph /  11.3km/h 70% 0.00in /  0mm
22:09 12.8 °F /  -10.7 °C 4.9 °F /  -15.1 °C 30.65in /  1037.8hPa SW 4.0mph /  6.4km/h 7.0mph /  11.3km/h 70% 0.00in /  0mm
22:14 12.9 °F /  -10.6 °C 5.0 °F /  -15 °C 30.65in /  1037.8hPa West 3.0mph /  4.8km/h 7.0mph /  11.3km/h 70% 0.00in /  0mm
22:19 13.0 °F /  -10.6 °C 5.0 °F /  -15 °C 30.65in /  1037.8hPa WSW 3.0mph /  4.8km/h 7.0mph /  11.3km/h 70% 0.00in /  0mm
22:24 13.0 °F /  -10.6 °C 5.0 °F /  -15 °C 30.65in /  1037.8hPa West 4.0mph /  6.4km/h 8.0mph /  12.9km/h 70% 0.00in /  0mm
22:29 13.1 °F /  -10.5 °C 5.1 °F /  -14.9 °C 30.65in /  1037.8hPa WNW 2.0mph /  3.2km/h 7.0mph /  11.3km/h 70% 0.00in /  0mm
22:34 13.2 °F /  -10.4 °C 5.2 °F /  -14.9 °C 30.65in /  1037.8hPa West 2.0mph /  3.2km/h 8.0mph /  12.9km/h 70% 0.00in /  0mm
22:39 13.3 °F /  -10.4 °C 5.6 °F /  -14.7 °C 30.64in /  1037.5hPa WNW 3.0mph /  4.8km/h 7.0mph /  11.3km/h 71% 0.00in /  0mm
22:44 13.4 °F /  -10.3 °C 5.7 °F /  -14.6 °C 30.64in /  1037.5hPa West 2.0mph /  3.2km/h 6.0mph /  9.7km/h 71% 0.00in /  0mm
22:49 13.5 °F /  -10.3 °C 5.8 °F /  -14.6 °C 30.64in /  1037.5hPa West 3.0mph /  4.8km/h 7.0mph /  11.3km/h 71% 0.00in /  0mm
22:54 13.6 °F /  -10.2 °C 5.9 °F /  -14.5 °C 30.64in /  1037.5hPa West 3.0mph /  4.8km/h 7.0mph /  11.3km/h 71% 0.00in /  0mm
22:59 13.8 °F /  -10.1 °C 6.1 °F /  -14.4 °C 30.64in /  1037.5hPa West 3.0mph /  4.8km/h 6.0mph /  9.7km/h 71% 0.00in /  0mm
23:04 13.9 °F /  -10.1 °C 6.2 °F /  -14.3 °C 30.64in /  1037.5hPa WSW 2.0mph /  3.2km/h 6.0mph /  9.7km/h 71% 0.00in /  0mm
23:09 14.1 °F /  -9.9 °C 6.4 °F /  -14.2 °C 30.64in /  1037.5hPa West 4.0mph /  6.4km/h 6.0mph /  9.7km/h 71% 0.00in /  0mm
23:19 14.3 °F /  -9.8 °C 6.9 °F /  -13.9 °C 30.64in /  1037.5hPa West 3.0mph /  4.8km/h 9.0mph /  14.5km/h 72% 0.00in /  0mm
23:24 14.3 °F /  -9.8 °C 6.9 °F /  -13.9 °C 30.64in /  1037.5hPa West 5.0mph /  8km/h 7.0mph /  11.3km/h 72% 0.00in /  0mm
23:29 14.4 °F /  -9.8 °C 7.0 °F /  -13.9 °C 30.64in /  1037.5hPa WNW 3.0mph /  4.8km/h 7.0mph /  11.3km/h 72% 0.00in /  0mm
23:34 14.4 °F /  -9.8 °C 7.0 °F /  -13.9 °C 30.64in /  1037.5hPa WNW 3.0mph /  4.8km/h 5.0mph /  8km/h 72% 0.00in /  0mm
23:39 14.4 °F /  -9.8 °C 7.0 °F /  -13.9 °C 30.64in /  1037.5hPa NW 2.0mph /  3.2km/h 5.0mph /  8km/h 72% 0.00in /  0mm
23:44 14.5 °F /  -9.7 °C 7.1 °F /  -13.8 °C 30.64in /  1037.5hPa WNW 2.0mph /  3.2km/h 5.0mph /  8km/h 72% 0.00in /  0mm
23:49 14.6 °F /  -9.7 °C 7.2 °F /  -13.8 °C 30.64in /  1037.5hPa West 4.0mph /  6.4km/h 5.0mph /  8km/h 72% 0.00in /  0mm
23:54 14.7 °F /  -9.6 °C 7.3 °F /  -13.7 °C 30.63in /  1037.1hPa West 3.0mph /  4.8km/h 5.0mph /  8km/h 72% 0.00in /  0mm
23:59 14.9 °F /  -9.5 °C 7.5 °F /  -13.6 °C 30.63in /  1037.1hPa West 3.0mph /  4.8km/h 6.0mph /  9.7km/h 72% 0.00in /  0mm
Buffalo, New York, USA
Compliments of Weather Underground - 2.25 mb